Time;durP1;ratioP1;P1;durP2;ratioP2;P2;SDS_P1;SDS_P2;PMS_P1;PMS_P2;Temp;Humidity;BMP_temperature;BMP_pressure;BME280_temperature;BME280_humidity;BME280_pressure;Samples;Min_cycle;Max_cycle;Signal;HPM_P1;HPM_P2
2020/12/13 00:01:35;;;;;;;25.13;17.37;;;7.90;1.00;;;;;;5047105;28;20513;-69
2020/12/13 00:04:01;;;;;;;26.17;18.17;;;7.90;1.00;;;;;;5055203;28;20184;-70
2020/12/13 00:06:31;;;;;;;25.27;16.90;;;7.90;1.00;;;;;;5055709;28;20172;-70
2020/12/13 00:08:57;;;;;;;26.93;17.70;;;8.00;1.00;;;;;;5043928;28;20169;-70
2020/12/13 00:11:22;;;;;;;23.80;17.90;;;7.90;1.00;;;;;;5050659;28;20453;-56
2020/12/13 00:13:48;;;;;;;29.17;18.87;;;8.00;1.00;;;;;;5056705;28;20419;-71
2020/12/13 00:16:15;;;;;;;23.43;17.80;;;8.00;1.00;;;;;;5054489;28;20230;-70
2020/12/13 00:18:43;;;;;;;26.87;18.83;;;7.90;1.00;;;;;;5070158;28;20433;-57
2020/12/13 00:21:13;;;;;;;24.03;16.80;;;8.00;1.00;;;;;;5053845;28;20745;-56
2020/12/13 00:23:43;;;;;;;26.17;17.77;;;8.10;1.00;;;;;;5053578;28;20431;-54
2020/12/13 00:26:09;;;;;;;28.07;19.20;;;8.00;1.00;;;;;;5071122;28;20422;-70
2020/12/13 00:28:36;;;;;;;27.90;18.33;;;7.90;1.00;;;;;;5053565;28;20430;-70
2020/12/13 00:31:05;;;;;;;23.80;16.70;;;8.00;1.00;;;;;;5052942;28;20580;-58
2020/12/13 00:33:31;;;;;;;31.30;20.23;;;8.00;1.00;;;;;;5054226;28;20426;-70
2020/12/13 00:35:57;;;;;;;23.80;17.23;;;8.00;1.00;;;;;;5053822;28;20954;-69
2020/12/13 00:38:22;;;;;;;28.97;17.90;;;8.00;1.00;;;;;;5054894;28;20438;-70
2020/12/13 00:40:52;;;;;;;25.83;17.10;;;8.00;1.00;;;;;;5054424;28;20176;-56
2020/12/13 00:43:18;;;;;;;27.27;19.50;;;8.00;1.00;;;;;;5053528;28;20183;-55
2020/12/13 00:45:44;;;;;;;24.17;17.57;;;8.00;1.00;;;;;;5046852;28;20482;-55
2020/12/13 00:48:10;;;;;;;29.00;19.20;;;8.00;1.00;;;;;;5069794;28;20438;-55
2020/12/13 00:50:39;;;;;;;25.97;17.83;;;8.10;1.00;;;;;;5054056;28;20186;-70
2020/12/13 00:53:08;;;;;;;26.17;18.07;;;8.00;1.00;;;;;;5051818;28;20188;-55
2020/12/13 00:55:34;;;;;;;26.57;18.70;;;8.00;1.00;;;;;;5035842;28;20467;-56
2020/12/13 00:58:00;;;;;;;25.30;17.47;;;7.90;1.00;;;;;;5047871;28;20934;-70
2020/12/13 01:00:26;;;;;;;25.97;18.73;;;7.90;1.00;;;;;;5053604;28;20259;-56
2020/12/13 01:02:56;;;;;;;24.70;17.60;;;7.90;1.00;;;;;;5053249;28;20222;-55
2020/12/13 01:05:21;;;;;;;24.10;17.80;;;7.90;1.00;;;;;;5053462;28;20434;-55
2020/12/13 01:07:47;;;;;;;25.33;17.73;;;8.00;1.00;;;;;;5054404;28;20721;-55
2020/12/13 01:10:13;;;;;;;27.53;18.37;;;8.00;1.00;;;;;;5053808;28;20483;-69
2020/12/13 01:12:41;;;;;;;21.70;17.47;;;8.00;1.00;;;;;;5058246;28;20179;-55
2020/12/13 01:15:07;;;;;;;25.37;18.17;;;8.00;1.00;;;;;;5053981;28;20199;-57
2020/12/13 01:17:33;;;;;;;26.30;17.83;;;7.70;1.00;;;;;;5053386;28;20430;-69
2020/12/13 01:19:58;;;;;;;26.67;18.70;;;8.00;1.00;;;;;;5053681;28;20963;-69
2020/12/13 01:22:25;;;;;;;25.10;17.30;;;8.00;1.00;;;;;;5053663;28;20509;-69
2020/12/13 01:24:51;;;;;;;26.53;17.47;;;8.00;1.00;;;;;;5053286;28;20203;-69
2020/12/13 01:27:16;;;;;;;26.90;17.37;;;7.90;1.00;;;;;;5050500;28;20478;-69
2020/12/13 01:29:42;;;;;;;23.23;16.57;;;7.90;1.00;;;;;;5053767;28;20688;-56
2020/12/13 01:32:08;;;;;;;21.63;16.40;;;7.90;1.00;;;;;;5051219;28;20276;-69
2020/12/13 01:34:33;;;;;;;29.83;17.60;;;7.80;1.00;;;;;;5051893;28;20195;-69
2020/12/13 01:37:00;;;;;;;24.07;16.70;;;7.80;1.00;;;;;;5050712;28;20203;-56
2020/12/13 01:39:26;;;;;;;25.20;17.33;;;7.70;1.00;;;;;;5067163;28;20207;-57
2020/12/13 01:41:59;;;;;;;25.43;17.40;;;7.70;1.00;;;;;;5052755;28;20473;-55
2020/12/13 01:44:35;;;;;;;25.70;18.70;;;7.80;1.00;;;;;;5052734;28;20169;-55
2020/12/13 01:47:03;;;;;;;28.47;18.00;;;7.70;1.00;;;;;;5068148;28;20474;-55
2020/12/13 01:49:39;;;;;;;25.87;17.20;;;7.70;1.00;;;;;;5053881;28;20842;-67
2020/12/13 01:54:37;;;;;;;29.67;20.20;;;7.70;1.00;;;;;;5048988;28;20434;-71
2020/12/13 01:57:04;;;;;;;27.23;19.53;;;7.70;1.00;;;;;;5054018;28;20891;-71
2020/12/13 01:59:32;;;;;;;27.97;18.13;;;7.60;1.00;;;;;;5044495;28;20439;-70
2020/12/13 02:02:03;;;;;;;27.20;19.00;;;7.60;1.00;;;;;;5052829;28;20514;-55
2020/12/13 02:04:32;;;;;;;29.33;19.77;;;7.60;1.00;;;;;;5052839;28;20430;-68
2020/12/13 02:07:01;;;;;;;27.87;18.17;;;7.70;1.00;;;;;;5054142;28;20426;-69
2020/12/13 02:09:27;;;;;;;29.63;19.33;;;7.70;1.00;;;;;;5055388;28;20438;-54
2020/12/13 02:11:53;;;;;;;27.57;19.53;;;7.60;1.00;;;;;;5057264;28;20457;-70
2020/12/13 02:14:19;;;;;;;29.00;20.20;;;7.60;1.00;;;;;;5057888;28;20251;-56
2020/12/13 02:16:50;;;;;;;29.53;20.97;;;7.60;1.00;;;;;;5057426;28;20786;-55
2020/12/13 02:19:17;;;;;;;32.73;21.37;;;7.60;1.00;;;;;;5051834;28;20814;-70
2020/12/13 02:21:44;;;;;;;35.90;22.90;;;7.50;1.00;;;;;;5055944;28;20521;-56
2020/12/13 02:24:11;;;;;;;35.53;21.47;;;7.50;1.00;;;;;;5070001;28;20438;-55
2020/12/13 02:26:42;;;;;;;34.10;22.30;;;7.50;1.00;;;;;;5056381;28;21023;-55
2020/12/13 02:29:08;;;;;;;35.43;23.73;;;7.50;1.00;;;;;;5053893;28;20442;-55
2020/12/13 02:31:34;;;;;;;30.20;21.70;;;7.50;1.00;;;;;;5054380;28;20492;-70
2020/12/13 02:34:02;;;;;;;32.77;22.13;;;7.50;1.00;;;;;;5054399;28;20852;-71
2020/12/13 02:36:28;;;;;;;32.97;22.23;;;7.50;1.00;;;;;;5054623;28;20935;-70
2020/12/13 02:38:54;;;;;;;32.70;22.60;;;7.50;1.00;;;;;;5052869;28;20445;-71
2020/12/13 02:41:20;;;;;;;36.97;20.67;;;7.50;1.00;;;;;;5055432;28;20517;-69
2020/12/13 02:43:45;;;;;;;31.40;22.00;;;7.60;1.00;;;;;;5054505;28;20212;-55
2020/12/13 02:46:11;;;;;;;35.23;22.73;;;7.50;1.00;;;;;;5069492;28;21756;-55
2020/12/13 02:48:37;;;;;;;35.30;21.10;;;7.50;1.00;;;;;;5055194;28;20182;-55
2020/12/13 02:51:02;;;;;;;32.10;21.67;;;7.50;1.00;;;;;;5055220;28;20176;-69
2020/12/13 02:53:28;;;;;;;31.47;20.70;;;7.40;1.00;;;;;;5054213;28;20192;-55
2020/12/13 02:55:53;;;;;;;32.30;21.50;;;7.50;1.00;;;;;;5053779;28;20204;-55
2020/12/13 02:58:19;;;;;;;31.97;21.23;;;7.50;1.00;;;;;;5055014;28;20179;-55
2020/12/13 03:00:45;;;;;;;35.00;22.57;;;7.50;1.00;;;;;;5054742;28;20179;-55
2020/12/13 03:03:10;;;;;;;34.80;21.40;;;7.60;1.00;;;;;;5055107;28;20231;-70
2020/12/13 03:05:36;;;;;;;29.10;21.20;;;7.70;1.00;;;;;;5054495;28;20176;-55
2020/12/13 03:08:01;;;;;;;35.13;23.17;;;7.70;1.00;;;;;;5053220;28;20378;-69
2020/12/13 03:10:27;;;;;;;29.93;21.03;;;7.70;1.00;;;;;;5053916;28;20313;-69
2020/12/13 03:12:53;;;;;;;29.10;20.90;;;7.70;1.00;;;;;;5054465;28;20215;-69
2020/12/13 03:15:18;;;;;;;34.13;22.17;;;7.70;1.00;;;;;;5053676;28;20510;-69
2020/12/13 03:17:44;;;;;;;28.90;19.67;;;7.70;1.00;;;;;;5053271;28;20528;-70
2020/12/13 03:20:10;;;;;;;28.10;19.47;;;7.80;1.00;;;;;;5052126;28;20740;-70
2020/12/13 03:22:36;;;;;;;31.27;21.10;;;7.80;1.00;;;;;;5053415;28;20176;-69
2020/12/13 03:25:03;;;;;;;30.40;19.87;;;7.80;1.00;;;;;;5059339;28;20624;-70
2020/12/13 03:27:28;;;;;;;35.43;23.10;;;7.70;1.00;;;;;;5051860;28;20470;-54
2020/12/13 03:29:54;;;;;;;31.03;20.90;;;7.70;1.00;;;;;;5069776;28;20479;-68
2020/12/13 03:32:20;;;;;;;30.93;20.60;;;7.80;1.00;;;;;;5053182;28;20255;-69
2020/12/13 03:34:46;;;;;;;30.57;18.90;;;7.80;1.00;;;;;;5054507;28;20255;-54
2020/12/13 03:37:12;;;;;;;28.13;20.57;;;7.80;1.00;;;;;;5053714;28;20500;-54
2020/12/13 03:39:37;;;;;;;29.50;20.27;;;7.70;1.00;;;;;;5053938;28;20242;-68
2020/12/13 03:42:03;;;;;;;33.30;22.63;;;7.70;1.00;;;;;;5052664;28;20442;-66
2020/12/13 03:44:28;;;;;;;26.90;19.30;;;7.80;1.00;;;;;;5054253;28;20549;-65
2020/12/13 03:46:54;;;;;;;30.83;22.03;;;7.70;1.00;;;;;;5054224;28;20664;-57
2020/12/13 03:49:20;;;;;;;34.50;22.37;;;7.80;1.00;;;;;;5054413;28;20275;-55
2020/12/13 03:51:45;;;;;;;34.53;21.83;;;7.80;1.00;;;;;;5052941;28;20263;-56
2020/12/13 03:54:11;;;;;;;31.40;21.40;;;7.80;1.00;;;;;;5049533;28;20272;-55
2020/12/13 03:56:36;;;;;;;34.40;24.10;;;7.80;1.00;;;;;;5046221;28;20208;-56
2020/12/13 03:59:02;;;;;;;32.20;21.50;;;7.80;1.00;;;;;;5053166;28;20187;-56
2020/12/13 04:01:28;;;;;;;35.60;23.87;;;7.90;1.00;;;;;;5052958;28;20252;-55
2020/12/13 04:03:53;;;;;;;36.73;24.87;;;7.90;1.00;;;;;;5069350;28;20199;-55
2020/12/13 04:06:19;;;;;;;34.40;23.20;;;7.80;1.00;;;;;;5052902;28;20744;-60
2020/12/13 04:08:44;;;;;;;34.40;22.30;;;7.80;1.00;;;;;;5050263;28;20279;-56
2020/12/13 04:11:11;;;;;;;31.33;23.07;;;7.70;1.00;;;;;;5050205;28;20625;-55
2020/12/13 04:13:36;;;;;;;32.90;23.20;;;7.80;1.00;;;;;;5051967;28;20625;-55
2020/12/13 04:16:02;;;;;;;32.17;22.63;;;7.80;1.00;;;;;;5052997;28;20484;-55
2020/12/13 04:18:28;;;;;;;35.47;23.30;;;7.80;1.00;;;;;;5052574;28;20173;-68
2020/12/13 04:20:53;;;;;;;32.50;22.93;;;8.60;1.00;;;;;;5055747;28;20537;-56
2020/12/13 04:23:19;;;;;;;35.73;23.47;;;7.80;1.00;;;;;;5052702;28;20263;-55
2020/12/13 04:25:44;;;;;;;32.53;22.30;;;7.70;1.00;;;;;;5049058;28;20192;-55
2020/12/13 04:28:10;;;;;;;31.47;21.93;;;7.80;1.00;;;;;;5048787;28;20192;-55
2020/12/13 04:30:36;;;;;;;32.03;21.80;;;7.70;1.00;;;;;;5046126;28;20192;-55
2020/12/13 04:33:01;;;;;;;34.03;22.93;;;7.70;1.00;;;;;;5048411;28;20185;-55
2020/12/13 04:35:27;;;;;;;32.90;23.57;;;7.70;1.00;;;;;;5059950;28;20221;-57
2020/12/13 04:37:53;;;;;;;33.13;22.17;;;7.70;1.00;;;;;;5064353;28;20637;-68
2020/12/13 04:40:18;;;;;;;35.60;20.90;;;7.80;1.00;;;;;;5051547;28;20194;-68
2020/12/13 04:42:44;;;;;;;37.43;22.40;;;7.80;1.00;;;;;;5052154;28;20210;-56
2020/12/13 04:45:10;;;;;;;36.80;25.33;;;7.80;1.00;;;;;;5052036;28;20628;-68
2020/12/13 04:48:01;;;;;;;38.30;23.27;;;8.00;1.00;;;;;;5048778;28;20228;-56
2020/12/13 04:50:29;;;;;;;36.77;22.67;;;8.00;1.00;;;;;;5053196;28;20188;-69
2020/12/13 04:52:57;;;;;;;34.90;24.23;;;7.90;1.00;;;;;;5052769;28;20474;-69
2020/12/13 04:55:23;;;;;;;36.80;22.90;;;8.00;1.00;;;;;;5045035;28;20475;-55
2020/12/13 04:57:48;;;;;;;35.93;21.63;;;8.00;1.00;;;;;;5051969;28;20930;-69
2020/12/13 05:00:17;;;;;;;33.70;22.40;;;7.90;1.00;;;;;;5046588;28;20183;-69
2020/12/13 05:02:42;;;;;;;37.10;25.70;;;7.90;1.00;;;;;;5051415;28;20180;-55
2020/12/13 05:05:10;;;;;;;33.93;22.67;;;7.90;1.00;;;;;;5049857;28;20803;-55
2020/12/13 05:07:36;;;;;;;36.73;24.30;;;7.90;1.00;;;;;;5066761;28;20199;-69
2020/12/13 05:10:03;;;;;;;38.10;22.70;;;7.90;1.00;;;;;;5049389;28;20438;-55
2020/12/13 05:12:28;;;;;;;34.60;24.33;;;7.90;1.00;;;;;;5044064;28;20461;-55
2020/12/13 05:14:54;;;;;;;35.23;23.23;;;8.00;1.00;;;;;;5042742;28;20888;-68
2020/12/13 05:17:20;;;;;;;36.73;22.80;;;7.90;1.00;;;;;;5051104;28;20223;-55
2020/12/13 05:19:49;;;;;;;34.97;23.47;;;7.90;1.00;;;;;;5052133;28;20180;-67
2020/12/13 05:22:22;;;;;;;35.37;23.13;;;7.90;1.00;;;;;;5049126;28;20274;-54
2020/12/13 05:24:48;;;;;;;33.40;21.40;;;7.80;1.00;;;;;;5055223;28;20534;-68
2020/12/13 05:27:18;;;;;;;31.70;22.17;;;7.80;1.00;;;;;;5049433;28;20446;-55
2020/12/13 05:29:45;;;;;;;36.23;22.57;;;7.80;1.00;;;;;;5052230;28;20814;-68
2020/12/13 05:32:18;;;;;;;32.43;22.60;;;7.90;1.00;;;;;;5050340;28;20438;-67
2020/12/13 05:34:45;;;;;;;33.17;21.40;;;8.00;1.00;;;;;;5049970;28;20446;-54
2020/12/13 05:37:16;;;;;;;33.43;22.47;;;7.90;1.00;;;;;;5048946;28;20445;-69
2020/12/13 05:39:44;;;;;;;31.10;22.07;;;7.90;1.00;;;;;;5052089;28;20448;-69
2020/12/13 05:42:13;;;;;;;32.77;21.73;;;7.90;1.00;;;;;;5046657;28;20433;-68
2020/12/13 05:52:26;;;;;;;30.93;21.90;;;7.90;1.00;;;;;;5050681;28;20480;-55
2020/12/13 05:54:53;;;;;;;31.03;21.60;;;8.00;1.00;;;;;;5043791;28;20511;-67
2020/12/13 05:57:20;;;;;;;28.30;21.70;;;7.80;1.00;;;;;;5044303;28;20445;-68
2020/12/13 05:59:45;;;;;;;31.97;22.30;;;7.90;1.00;;;;;;5049533;28;20463;-69
2020/12/13 06:02:11;;;;;;;31.50;20.73;;;7.90;1.00;;;;;;5049478;28;20477;-54
2020/12/13 06:04:46;;;;;;;32.47;23.00;;;7.90;1.00;;;;;;5049451;28;20184;-54
2020/12/13 06:07:12;;;;;;;34.57;23.53;;;7.90;1.00;;;;;;5046307;28;20433;-55
2020/12/13 06:09:44;;;;;;;29.33;20.63;;;7.80;1.00;;;;;;5049267;28;20837;-59
2020/12/13 06:12:12;;;;;;;29.90;20.97;;;7.80;1.00;;;;;;5051351;28;20187;-55
2020/12/13 06:14:39;;;;;;;31.90;20.27;;;7.80;1.00;;;;;;5052013;28;20458;-68
2020/12/13 06:17:05;;;;;;;32.33;20.13;;;7.80;1.00;;;;;;5050755;28;20431;-69
2020/12/13 06:19:33;;;;;;;35.67;23.07;;;7.80;1.00;;;;;;5050837;28;20427;-68
2020/12/13 06:22:00;;;;;;;28.40;21.00;;;7.90;1.00;;;;;;5046335;28;20180;-69
2020/12/13 06:24:26;;;;;;;33.27;20.77;;;7.80;1.00;;;;;;5050652;28;20794;-56
2020/12/13 06:26:53;;;;;;;30.47;21.27;;;7.80;1.00;;;;;;5051320;28;20500;-57
2020/12/13 06:29:20;;;;;;;30.03;20.57;;;7.90;1.00;;;;;;5059871;28;20521;-55
2020/12/13 06:31:47;;;;;;;29.90;19.80;;;7.80;1.00;;;;;;5051090;28;20441;-68
2020/12/13 06:34:13;;;;;;;27.20;19.67;;;7.90;1.00;;;;;;5049627;28;20780;-56
2020/12/13 06:36:39;;;;;;;32.30;20.20;;;7.90;1.00;;;;;;5050913;28;20931;-56
2020/12/13 06:39:16;;;;;;;29.00;21.40;;;8.00;1.00;;;;;;5051799;28;20184;-69
2020/12/13 06:41:50;;;;;;;31.20;20.40;;;7.90;1.00;;;;;;5044208;28;20438;-70
2020/12/13 06:44:17;;;;;;;28.00;19.93;;;8.00;1.00;;;;;;5043403;28;20429;-55
2020/12/13 06:46:45;;;;;;;31.10;21.60;;;8.00;1.00;;;;;;5047239;28;20576;-56
2020/12/13 06:49:13;;;;;;;26.77;19.20;;;8.00;1.00;;;;;;5041815;28;20434;-70
2020/12/13 06:51:41;;;;;;;32.30;20.10;;;8.00;1.00;;;;;;5052136;28;20442;-56
2020/12/13 06:54:12;;;;;;;30.83;19.50;;;8.00;1.00;;;;;;5049104;28;20525;-69
2020/12/13 06:56:42;;;;;;;29.80;20.97;;;8.00;1.00;;;;;;5053130;28;20462;-55
2020/12/13 06:59:09;;;;;;;33.93;20.77;;;8.00;1.00;;;;;;5051837;28;20438;-69
2020/12/13 07:01:39;;;;;;;28.40;19.57;;;8.00;1.00;;;;;;5053554;28;20441;-56
2020/12/13 07:04:45;;;;;;;28.83;20.27;;;7.90;1.00;;;;;;5047464;28;20430;-55
2020/12/13 07:07:25;;;;;;;29.33;20.20;;;7.90;1.00;;;;;;5051936;28;20440;-55
2020/12/13 07:09:51;;;;;;;26.17;18.53;;;8.00;1.00;;;;;;5054221;28;20426;-55
2020/12/13 07:12:18;;;;;;;30.30;19.63;;;8.00;1.00;;;;;;5069584;28;20442;-69
2020/12/13 07:14:45;;;;;;;29.20;20.57;;;8.10;1.00;;;;;;5052422;28;20518;-69
2020/12/13 07:17:18;;;;;;;29.67;19.60;;;8.00;1.00;;;;;;5061883;28;20765;-68
2020/12/13 07:19:44;;;;;;;29.70;19.80;;;8.00;1.00;;;;;;5047011;28;20520;-55
2020/12/13 07:22:14;;;;;;;30.50;20.37;;;8.00;1.00;;;;;;5055216;28;20469;-70
2020/12/13 07:24:41;;;;;;;30.93;21.47;;;8.00;1.00;;;;;;5054266;28;20221;-70
2020/12/13 07:27:08;;;;;;;28.33;18.70;;;8.00;1.00;;;;;;5045061;28;20440;-55
2020/12/13 07:29:34;;;;;;;31.77;19.00;;;8.00;1.00;;;;;;5051966;28;20935;-70
2020/12/13 07:32:02;;;;;;;31.00;20.33;;;8.00;1.00;;;;;;5052502;28;20889;-71
2020/12/13 07:34:28;;;;;;;28.03;18.73;;;8.10;1.00;;;;;;5053872;28;20768;-55
2020/12/13 07:36:54;;;;;;;27.40;19.67;;;8.00;1.00;;;;;;5067272;28;20462;-70
2020/12/13 07:39:22;;;;;;;34.43;21.77;;;8.00;1.00;;;;;;5055545;28;20838;-56
2020/12/13 07:41:48;;;;;;;28.80;19.43;;;8.10;1.00;;;;;;5049118;28;20569;-55
2020/12/13 07:44:16;;;;;;;31.33;20.60;;;8.10;1.00;;;;;;5064464;28;20521;-55
2020/12/13 07:46:43;;;;;;;28.97;20.40;;;8.20;1.00;;;;;;5055683;28;20514;-56
2020/12/13 07:49:18;;;;;;;29.27;20.23;;;8.30;1.00;;;;;;5055599;28;20911;-70
2020/12/13 07:51:47;;;;;;;28.03;19.10;;;8.40;1.00;;;;;;5055928;28;20458;-56
2020/12/13 07:54:13;;;;;;;33.90;21.57;;;8.30;1.00;;;;;;5055634;28;20446;-56
2020/12/13 07:56:40;;;;;;;29.00;20.97;;;8.30;1.00;;;;;;5054914;28;20467;-69
2020/12/13 07:59:14;;;;;;;25.53;18.97;;;8.30;1.00;;;;;;5043947;28;20815;-68
2020/12/13 08:01:41;;;;;;;25.63;18.70;;;8.30;1.00;;;;;;5051824;28;20420;-56
2020/12/13 08:04:07;;;;;;;25.07;18.50;;;8.30;1.00;;;;;;5046571;28;20423;-56
2020/12/13 08:06:34;;;;;;;30.40;19.70;;;8.30;1.00;;;;;;5054635;28;20892;-55
2020/12/13 08:09:00;;;;;;;24.80;18.47;;;8.30;1.00;;;;;;5039476;28;20184;-55
2020/12/13 08:11:26;;;;;;;30.53;20.90;;;8.30;1.00;;;;;;5043984;28;20439;-67
2020/12/13 08:13:54;;;;;;;28.70;17.97;;;8.40;1.00;;;;;;5055402;28;20492;-68
2020/12/13 08:16:23;;;;;;;28.97;19.87;;;8.50;1.00;;;;;;5055557;28;20462;-69
2020/12/13 08:18:51;;;;;;;29.30;21.27;;;8.60;1.00;;;;;;5055600;28;20418;-68
2020/12/13 08:21:42;;;;;;;31.10;21.23;;;8.60;1.00;;;;;;5055515;28;20422;-69
2020/12/13 08:24:11;;;;;;;28.00;19.07;;;8.60;1.00;;;;;;5055619;28;20721;-68
2020/12/13 08:26:37;;;;;;;29.20;19.77;;;8.60;1.00;;;;;;5071926;28;20435;-68
2020/12/13 08:29:03;;;;;;;26.00;18.90;;;8.60;1.00;;;;;;5044975;28;20826;-70
2020/12/13 08:31:29;;;;;;;27.00;20.10;;;8.60;1.00;;;;;;5047281;28;20181;-68
2020/12/13 08:34:03;;;;;;;28.20;20.50;;;8.60;1.00;;;;;;5035436;28;20420;-68
2020/12/13 08:36:29;;;;;;;28.80;20.70;;;8.60;1.00;;;;;;5046893;28;20924;-67
2020/12/13 08:39:03;;;;;;;30.60;20.23;;;8.50;1.00;;;;;;5055210;28;20516;-60
2020/12/13 08:41:28;;;;;;;25.97;18.57;;;8.40;1.00;;;;;;5054848;28;20439;-56
2020/12/13 08:43:54;;;;;;;27.13;19.03;;;8.40;1.00;;;;;;5054493;28;20434;-56
2020/12/13 08:46:33;;;;;;;26.33;19.10;;;8.50;1.00;;;;;;5070122;28;20311;-55
2020/12/13 08:48:59;;;;;;;26.60;19.10;;;8.90;1.00;;;;;;5054393;28;20168;-54
2020/12/13 08:51:27;;;;;;;25.63;19.77;;;9.10;1.00;;;;;;5054400;28;20432;-54
2020/12/13 08:53:57;;;;;;;27.23;18.27;;;8.90;1.00;;;;;;5053307;28;20501;-54
2020/12/13 08:56:31;;;;;;;26.93;18.93;;;8.90;1.00;;;;;;5051510;28;21034;-55
2020/12/13 08:58:57;;;;;;;26.20;19.00;;;8.80;1.00;;;;;;5052332;28;20541;-54
2020/12/13 09:01:35;;;;;;;29.83;18.93;;;8.70;1.00;;;;;;5052121;28;20431;-55
2020/12/13 09:04:01;;;;;;;26.50;19.27;;;8.70;1.00;;;;;;5049595;28;20495;-56
2020/12/13 09:06:34;;;;;;;27.27;19.70;;;8.70;1.00;;;;;;5050290;28;20442;-56
2020/12/13 09:09:14;;;;;;;27.23;19.20;;;8.70;1.00;;;;;;5052147;28;20478;-55
2020/12/13 09:11:41;;;;;;;29.90;19.60;;;8.60;1.00;;;;;;5052719;28;20461;-54
2020/12/13 09:14:07;;;;;;;28.70;20.67;;;8.60;1.00;;;;;;5052337;28;20435;-54
2020/12/13 09:16:34;;;;;;;30.37;21.20;;;8.60;1.00;;;;;;5052064;28;20462;-54
2020/12/13 09:19:11;;;;;;;27.73;19.57;;;8.60;1.00;;;;;;5051179;28;20267;-54
2020/12/13 09:21:54;;;;;;;26.00;19.67;;;8.70;1.00;;;;;;5045301;28;20454;-54
2020/12/13 09:24:32;;;;;;;27.90;18.53;;;8.70;1.00;;;;;;5051511;28;20438;-61
2020/12/13 09:27:03;;;;;;;26.83;19.70;;;8.80;1.00;;;;;;5052785;28;20434;-63
2020/12/13 09:29:30;;;;;;;27.57;18.97;;;8.80;1.00;;;;;;5051957;28;20922;-53
2020/12/13 09:31:56;;;;;;;28.90;19.40;;;8.90;1.00;;;;;;5052137;28;20449;-54
2020/12/13 09:34:22;;;;;;;30.03;18.67;;;8.80;1.00;;;;;;5052144;28;20435;-62
2020/12/13 09:36:49;;;;;;;25.03;18.90;;;8.90;1.00;;;;;;5051520;28;20488;-55
2020/12/13 09:39:15;;;;;;;26.03;18.47;;;8.90;1.00;;;;;;5052085;28;20435;-62
2020/12/13 09:41:41;;;;;;;29.00;19.57;;;9.00;1.00;;;;;;5051558;28;20433;-55
2020/12/13 09:44:07;;;;;;;29.37;20.20;;;9.00;1.00;;;;;;5050893;28;20514;-54
2020/12/13 09:46:33;;;;;;;25.00;18.00;;;9.10;1.00;;;;;;5051503;28;20229;-54
2020/12/13 09:48:58;;;;;;;30.47;19.50;;;9.10;1.00;;;;;;5052193;28;20199;-55
2020/12/13 09:51:24;;;;;;;26.20;17.80;;;9.20;1.00;;;;;;5051582;28;20180;-54
2020/12/13 09:53:49;;;;;;;25.60;19.37;;;9.30;1.00;;;;;;5050382;28;20188;-54
2020/12/13 09:56:16;;;;;;;28.40;19.43;;;9.30;1.00;;;;;;5051080;28;20641;-54
2020/12/13 09:58:43;;;;;;;30.23;19.13;;;9.50;1.00;;;;;;5051423;28;20263;-55
2020/12/13 10:01:10;;;;;;;25.70;17.97;;;9.50;1.00;;;;;;5051158;28;20524;-55
2020/12/13 10:03:38;;;;;;;32.57;20.10;;;9.50;1.00;;;;;;5051242;28;20760;-56
2020/12/13 10:11:19;;;;;;;31.80;20.27;;;9.60;1.00;;;;;;5050494;28;20438;-54
2020/12/13 10:13:45;;;;;;;28.40;19.43;;;9.50;1.00;;;;;;5052602;28;20896;-55
2020/12/13 10:16:11;;;;;;;27.23;19.80;;;9.60;1.00;;;;;;5053694;28;20197;-55
2020/12/13 10:18:38;;;;;;;27.63;18.37;;;9.50;1.00;;;;;;5053218;28;20191;-55
2020/12/13 10:21:03;;;;;;;26.70;18.40;;;9.60;1.00;;;;;;5052354;28;20441;-56
2020/12/13 10:23:29;;;;;;;27.00;19.57;;;9.60;1.00;;;;;;5051078;28;20513;-54
2020/12/13 10:25:55;;;;;;;24.50;18.20;;;9.50;1.00;;;;;;5051779;28;20202;-63
2020/12/13 10:28:20;;;;;;;27.00;19.37;;;9.60;1.00;;;;;;5053803;28;20193;-62
2020/12/13 10:30:50;;;;;;;23.73;16.70;;;9.50;1.00;;;;;;5054183;28;20661;-56
2020/12/13 10:33:17;;;;;;;30.07;20.10;;;9.60;1.00;;;;;;5054528;28;20678;-55
2020/12/13 10:35:43;;;;;;;25.73;17.90;;;9.70;1.00;;;;;;5055406;28;20924;-64
2020/12/13 10:38:10;;;;;;;27.03;20.27;;;9.70;1.00;;;;;;5055998;28;20492;-63
2020/12/13 10:40:37;;;;;;;28.33;21.40;;;9.90;1.00;;;;;;5054024;28;20441;-61
2020/12/13 10:43:04;;;;;;;30.23;20.17;;;9.90;1.00;;;;;;5054428;28;20466;-63
2020/12/13 10:45:30;;;;;;;26.63;19.23;;;9.90;1.00;;;;;;5054774;28;20437;-64
2020/12/13 10:47:55;;;;;;;26.77;19.57;;;9.80;1.00;;;;;;5055218;28;20792;-62
2020/12/13 10:50:21;;;;;;;27.60;18.93;;;9.80;1.00;;;;;;5054657;28;20439;-65
2020/12/13 10:52:47;;;;;;;30.03;20.40;;;9.70;1.00;;;;;;5056249;28;20594;-62
2020/12/13 10:55:15;;;;;;;22.73;18.53;;;9.80;1.00;;;;;;5056384;28;20534;-62
2020/12/13 10:57:42;;;;;;;30.37;21.67;;;9.80;1.00;;;;;;5047379;28;20185;-61
2020/12/13 11:00:08;;;;;;;26.03;18.33;;;9.80;1.00;;;;;;5055295;28;20520;-62
2020/12/13 11:02:33;;;;;;;28.33;19.90;;;9.90;1.00;;;;;;5056992;28;20514;-62
2020/12/13 11:04:59;;;;;;;24.80;18.10;;;9.80;1.00;;;;;;5056988;28;20588;-62
2020/12/13 11:07:24;;;;;;;26.77;18.53;;;9.80;1.00;;;;;;5056959;28;20176;-66
2020/12/13 11:09:52;;;;;;;28.20;19.63;;;9.70;1.00;;;;;;5056900;28;20179;-64
2020/12/13 11:12:17;;;;;;;24.50;18.00;;;9.70;1.00;;;;;;5056684;28;20207;-55
2020/12/13 11:14:43;;;;;;;26.23;19.67;;;9.80;1.00;;;;;;5056798;28;20450;-64
2020/12/13 11:17:09;;;;;;;25.50;18.07;;;9.80;1.00;;;;;;5056530;28;20790;-55
2020/12/13 11:19:34;;;;;;;25.40;19.00;;;9.80;1.00;;;;;;5056470;28;20184;-64
2020/12/13 11:22:00;;;;;;;26.43;18.80;;;9.90;1.00;;;;;;5056073;28;20247;-63
2020/12/13 11:24:26;;;;;;;22.47;18.23;;;9.90;1.00;;;;;;5055345;28;20228;-62
2020/12/13 11:26:51;;;;;;;25.57;18.90;;;9.80;1.00;;;;;;5074961;28;20588;-55
2020/12/13 11:29:17;;;;;;;24.03;17.77;;;9.90;1.00;;;;;;5055380;28;20215;-54
2020/12/13 11:31:42;;;;;;;27.57;19.40;;;9.80;1.00;;;;;;5052435;28;20624;-64
2020/12/13 11:34:08;;;;;;;29.00;19.73;;;9.90;1.00;;;;;;5056561;28;20184;-54
2020/12/13 11:36:34;;;;;;;26.23;19.10;;;9.90;1.00;;;;;;5056090;28;20400;-63
2020/12/13 11:38:59;;;;;;;27.87;19.47;;;10.00;1.00;;;;;;5071937;28;20206;-54
2020/12/13 11:41:28;;;;;;;25.87;18.87;;;10.00;1.00;;;;;;5056082;28;20506;-64
2020/12/13 11:43:54;;;;;;;29.00;19.37;;;9.90;1.00;;;;;;5055450;28;20184;-62
2020/12/13 11:46:21;;;;;;;24.63;18.13;;;9.80;1.00;;;;;;5055038;28;20479;-63
2020/12/13 11:48:47;;;;;;;25.97;18.57;;;9.90;1.00;;;;;;5056141;28;20520;-55
2020/12/13 11:51:12;;;;;;;26.37;19.57;;;9.90;1.00;;;;;;5054775;28;20900;-54
2020/12/13 11:53:38;;;;;;;27.90;20.00;;;9.90;1.00;;;;;;5055195;28;20441;-53
2020/12/13 11:56:04;;;;;;;22.67;17.33;;;9.80;1.00;;;;;;5070974;28;20288;-53
2020/12/13 11:58:30;;;;;;;26.80;18.30;;;9.90;1.00;;;;;;5060975;28;20184;-64
2020/12/13 12:00:55;;;;;;;28.37;19.30;;;9.80;1.00;;;;;;5055057;28;20427;-63
2020/12/13 12:03:21;;;;;;;27.53;19.40;;;9.80;1.00;;;;;;5055755;28;20553;-63
2020/12/13 12:05:46;;;;;;;27.53;19.20;;;9.90;1.00;;;;;;5055799;28;20188;-55
2020/12/13 12:08:12;;;;;;;24.43;17.40;;;10.00;1.00;;;;;;5054226;28;20169;-54
2020/12/13 12:10:38;;;;;;;27.43;19.20;;;9.90;1.00;;;;;;5035823;28;20191;-54
2020/12/13 12:13:04;;;;;;;25.70;19.13;;;9.90;1.00;;;;;;5035565;28;20571;-54
2020/12/13 12:15:29;;;;;;;25.30;17.93;;;9.80;1.00;;;;;;5035617;28;20198;-54
2020/12/13 12:17:55;;;;;;;24.93;17.77;;;9.80;1.00;;;;;;5035677;28;20423;-54
2020/12/13 12:20:26;;;;;;;29.77;19.83;;;9.80;1.00;;;;;;5035658;28;20173;-64
2020/12/13 12:22:53;;;;;;;25.90;18.70;;;9.90;1.00;;;;;;5067861;28;20431;-64
2020/12/13 12:25:19;;;;;;;29.77;18.60;;;9.80;1.00;;;;;;5056227;28;20424;-64
2020/12/13 12:27:44;;;;;;;27.23;18.63;;;9.90;1.00;;;;;;5055644;28;20900;-63
2020/12/13 12:30:10;;;;;;;26.87;19.03;;;9.80;1.00;;;;;;5055732;28;20191;-63
2020/12/13 12:32:36;;;;;;;32.43;21.50;;;9.80;1.00;;;;;;5054887;28;20209;-63
2020/12/13 12:35:02;;;;;;;29.03;19.43;;;9.80;1.00;;;;;;5055501;28;20880;-64
2020/12/13 12:37:28;;;;;;;27.70;19.40;;;9.70;1.00;;;;;;5065133;28;20203;-64
2020/12/13 12:39:55;;;;;;;25.30;17.60;;;9.70;1.00;;;;;;5064681;28;20744;-64
2020/12/13 12:42:22;;;;;;;30.73;20.23;;;9.60;1.00;;;;;;5055286;28;20197;-63
2020/12/13 12:44:48;;;;;;;26.73;20.00;;;9.60;1.00;;;;;;5056237;28;20427;-54
2020/12/13 12:47:14;;;;;;;28.03;19.10;;;9.60;1.00;;;;;;5055197;28;20533;-55
2020/12/13 12:49:40;;;;;;;29.93;21.20;;;9.70;1.00;;;;;;5055550;28;20176;-64
2020/12/13 12:52:06;;;;;;;28.77;18.87;;;9.60;1.00;;;;;;5057243;28;20546;-63
2020/12/13 12:54:31;;;;;;;25.70;19.20;;;9.70;1.00;;;;;;5057794;28;20465;-64
2020/12/13 12:56:57;;;;;;;25.27;18.97;;;9.70;1.00;;;;;;5054888;28;20242;-63
2020/12/13 12:59:44;;;;;;;27.00;19.43;;;9.70;1.00;;;;;;5057534;28;20177;-64
2020/12/13 13:02:10;;;;;;;29.53;21.80;;;9.70;1.00;;;;;;5055026;28;20154;-64